Terminal Aerodrome Forecast
Issued by NWS

Home | Current Version | Previous Version | Text Only | Print | Product List | Glossary On
Versions: 1 2 3 4 5 6 7 8 9 10 11 12
000
FTUS45 KVEF 271720
TAFDAG
TAF
KDAG 271720Z 2718/2818 32008KT P6SM SCT250
     FM272000 04008KT P6SM FEW250
     FM280100 23012KT P6SM SKC
     FM280500 27011KT P6SM SKC=

USA.gov is the U.S. government's official web portal to all federal, state and local government web resources and services.